createdAt,value
2022-08-08T00:02:32.954Z,13.97
2022-08-08T00:05:09.384Z,13.84
2022-08-08T00:07:43.853Z,13.79
2022-08-08T00:10:28.144Z,13.81
2022-08-08T00:14:15.000Z,13.83
2022-08-08T00:16:13.059Z,13.78
2022-08-08T00:18:53.245Z,13.79
2022-08-08T00:21:29.626Z,13.74
2022-08-08T00:24:24.029Z,13.68
2022-08-08T00:27:01.366Z,13.68
2022-08-08T00:29:45.222Z,13.67
2022-08-08T00:32:36.390Z,13.68
2022-08-08T00:35:20.065Z,13.68
2022-08-08T00:38:02.348Z,13.65
2022-08-08T00:41:07.833Z,13.66
2022-08-08T00:43:41.086Z,13.68
2022-08-08T00:46:56.036Z,13.70
2022-08-08T00:49:50.619Z,13.64
2022-08-08T00:53:01.934Z,13.61
2022-08-08T00:56:05.385Z,13.61
2022-08-08T00:59:43.870Z,13.62
2022-08-08T01:03:58.498Z,13.66
2022-08-08T01:06:00.734Z,13.65
2022-08-08T01:08:57.293Z,13.63
2022-08-08T01:11:48.301Z,13.64
2022-08-08T01:14:54.572Z,13.60
2022-08-08T01:18:16.291Z,13.48
2022-08-08T01:21:07.304Z,13.40
2022-08-08T01:24:16.522Z,13.46
2022-08-08T01:27:02.871Z,13.42
2022-08-08T01:30:05.936Z,13.44
2022-08-08T01:32:44.796Z,13.48
2022-08-08T01:35:33.253Z,13.53
2022-08-08T01:38:11.510Z,13.40
2022-08-08T01:41:15.928Z,13.38
2022-08-08T01:44:02.342Z,13.28
2022-08-08T01:46:52.193Z,13.23
2022-08-08T01:49:37.921Z,13.17
2022-08-08T01:52:43.929Z,13.20
2022-08-08T01:56:29.129Z,13.13
2022-08-08T01:58:39.602Z,13.12
2022-08-08T02:02:00.560Z,13.11
2022-08-08T02:05:01.390Z,13.17
2022-08-08T02:08:04.994Z,13.20
2022-08-08T02:11:03.300Z,13.17
2022-08-08T02:13:54.850Z,13.19
2022-08-08T02:16:42.886Z,13.21
2022-08-08T02:19:41.571Z,13.22
2022-08-08T02:22:28.278Z,13.24
2022-08-08T02:25:43.507Z,13.23
2022-08-08T02:28:34.893Z,13.24
2022-08-08T02:31:59.259Z,13.27
2022-08-08T02:34:27.626Z,13.31
2022-08-08T02:37:52.306Z,13.22
2022-08-08T02:41:00.126Z,13.19
2022-08-08T02:44:42.464Z,13.23
2022-08-08T02:46:47.456Z,13.30
2022-08-08T02:49:38.125Z,13.34
2022-08-08T02:52:38.472Z,13.36
2022-08-08T02:55:57.818Z,13.36
2022-08-08T02:59:05.972Z,13.38
2022-08-08T03:02:20.610Z,13.39
2022-08-08T03:05:10.630Z,13.37
2022-08-08T03:08:06.145Z,13.35
2022-08-08T03:10:44.275Z,13.32
2022-08-08T03:15:58.740Z,13.29
2022-08-08T03:17:20.135Z,13.28
2022-08-08T03:20:08.151Z,13.26
2022-08-08T03:22:56.092Z,13.24
2022-08-08T03:25:34.080Z,13.22
2022-08-08T03:28:10.217Z,13.21
2022-08-08T03:30:44.110Z,13.19
2022-08-08T03:33:58.850Z,13.10
2022-08-08T03:36:09.366Z,13.07
2022-08-08T03:38:54.041Z,13.02
2022-08-08T03:42:27.691Z,13.01
2022-08-08T03:44:31.475Z,12.96
2022-08-08T03:47:14.194Z,12.94
2022-08-08T03:49:57.709Z,12.91
2022-08-08T03:52:32.048Z,12.74
2022-08-08T03:55:09.522Z,12.59
2022-08-08T03:58:30.074Z,12.50
2022-08-08T04:00:30.537Z,12.41
2022-08-08T04:03:11.645Z,12.40
2022-08-08T04:05:49.631Z,12.39
2022-08-08T04:08:32.467Z,12.44
2022-08-08T04:11:11.429Z,12.38
2022-08-08T04:14:03.782Z,12.38
2022-08-08T04:16:38.996Z,12.44
2022-08-08T04:19:23.379Z,12.35
2022-08-08T04:21:54.221Z,12.33
2022-08-08T04:24:29.346Z,12.35
2022-08-08T04:26:59.544Z,12.31
2022-08-08T04:29:37.151Z,12.28
2022-08-08T04:32:08.196Z,12.28
2022-08-08T04:34:42.800Z,12.27
2022-08-08T04:37:16.634Z,12.27
2022-08-08T04:40:03.601Z,12.23
2022-08-08T04:42:34.135Z,12.26
2022-08-08T04:45:05.360Z,12.28
2022-08-08T04:47:43.222Z,12.32
2022-08-08T04:50:24.439Z,12.36
2022-08-08T04:52:58.741Z,12.38
2022-08-08T04:55:47.391Z,12.43
2022-08-08T04:58:20.224Z,12.45
2022-08-08T05:00:50.151Z,12.48
2022-08-08T05:04:10.825Z,12.51
2022-08-08T05:06:13.220Z,12.55
2022-08-08T05:08:43.153Z,12.64
2022-08-08T05:11:18.746Z,12.72
2022-08-08T05:13:57.686Z,12.88
2022-08-08T05:16:54.999Z,13.05
2022-08-08T05:20:08.911Z,13.28
2022-08-08T05:22:08.407Z,13.47
2022-08-08T05:24:38.584Z,13.63
2022-08-08T05:27:06.686Z,13.78
2022-08-08T05:29:36.793Z,13.97
2022-08-08T05:32:08.226Z,14.05
2022-08-08T05:34:47.701Z,14.21
2022-08-08T05:37:53.339Z,14.37
2022-08-08T05:40:17.697Z,14.56
2022-08-08T05:42:52.709Z,14.75
2022-08-08T05:45:30.551Z,14.85
2022-08-08T05:48:08.763Z,15.01
2022-08-08T05:50:38.577Z,15.17
2022-08-08T05:53:53.775Z,15.34
2022-08-08T05:56:10.228Z,15.48
2022-08-08T05:58:57.929Z,15.53
2022-08-08T06:01:55.398Z,15.72
2022-08-08T06:04:25.335Z,15.90
2022-08-08T06:07:00.230Z,16.02
2022-08-08T06:10:00.666Z,16.17
2022-08-08T06:12:30.304Z,16.37
2022-08-08T06:15:03.686Z,16.45
2022-08-08T06:17:50.949Z,16.64
2022-08-08T06:20:25.898Z,16.70
2022-08-08T06:22:56.277Z,16.78
2022-08-08T06:26:34.952Z,16.98
2022-08-08T06:28:31.850Z,17.03
2022-08-08T06:31:04.235Z,17.16
2022-08-08T06:34:27.148Z,17.47
2022-08-08T06:36:53.838Z,17.49
2022-08-08T06:39:22.610Z,17.76
2022-08-08T06:41:56.768Z,17.87
2022-08-08T06:44:27.136Z,18.08
2022-08-08T06:46:58.956Z,18.18
2022-08-08T06:49:55.965Z,18.30
2022-08-08T06:52:16.054Z,18.38
2022-08-08T06:54:44.426Z,18.58
2022-08-08T06:57:16.163Z,18.94
2022-08-08T07:00:03.755Z,19.01
2022-08-08T07:02:32.915Z,19.35
2022-08-08T07:05:11.832Z,19.50
2022-08-08T07:07:52.818Z,19.69
2022-08-08T07:10:25.446Z,19.93
2022-08-08T07:13:00.228Z,20.16
2022-08-08T07:16:04.879Z,20.23
2022-08-08T07:19:06.221Z,20.44
2022-08-08T07:22:02.014Z,20.75
2022-08-08T07:24:42.550Z,20.78
2022-08-08T07:27:16.626Z,21.13
2022-08-08T07:30:01.992Z,21.10
2022-08-08T07:32:39.787Z,20.97
2022-08-08T07:35:09.780Z,21.03
2022-08-08T07:38:04.438Z,21.16
2022-08-08T07:40:40.133Z,21.18
2022-08-08T07:43:12.090Z,21.32
2022-08-08T07:46:05.632Z,21.49
2022-08-08T07:48:36.249Z,21.57
2022-08-08T07:51:04.225Z,21.66
2022-08-08T07:54:02.874Z,21.53
2022-08-08T07:56:42.595Z,21.65
2022-08-08T07:59:16.226Z,21.57
2022-08-08T08:02:36.625Z,21.10
2022-08-08T08:04:49.418Z,20.92
2022-08-08T08:07:26.770Z,21.30
2022-08-08T08:10:04.500Z,21.83
2022-08-08T08:12:41.474Z,22.10
2022-08-08T08:15:18.305Z,21.94
2022-08-08T08:17:55.498Z,22.00
2022-08-08T08:20:30.079Z,22.03
2022-08-08T08:22:59.869Z,22.06
2022-08-08T08:25:42.950Z,22.37
2022-08-08T08:28:21.257Z,22.35
2022-08-08T08:30:53.831Z,22.42
2022-08-08T08:33:22.906Z,22.37
2022-08-08T08:36:20.242Z,22.55
2022-08-08T08:38:49.442Z,22.76
2022-08-08T08:41:22.469Z,22.66
2022-08-08T08:43:52.035Z,22.67
2022-08-08T08:46:19.907Z,22.86
2022-08-08T08:48:53.567Z,23.09
2022-08-08T08:51:21.133Z,23.03
2022-08-08T08:53:56.274Z,23.11
2022-08-08T08:56:31.782Z,23.27
2022-08-08T08:59:05.633Z,23.26
2022-08-08T09:01:43.890Z,23.55
2022-08-08T09:04:30.844Z,23.20
2022-08-08T09:07:12.751Z,23.28
2022-08-08T09:09:48.341Z,23.74
2022-08-08T09:12:27.329Z,23.91
2022-08-08T09:14:57.849Z,23.95
2022-08-08T09:17:40.853Z,23.78
2022-08-08T09:21:59.697Z,24.00
2022-08-08T09:22:59.255Z,23.84
2022-08-08T09:25:35.996Z,23.76
2022-08-08T09:28:35.499Z,24.16
2022-08-08T09:31:12.365Z,24.52
2022-08-08T09:34:15.115Z,24.64
2022-08-08T09:36:34.505Z,24.56
2022-08-08T09:39:15.443Z,24.87
2022-08-08T09:42:14.200Z,24.90
2022-08-08T09:44:48.708Z,24.96
2022-08-08T09:47:27.012Z,25.22
2022-08-08T09:50:23.570Z,25.20
2022-08-08T09:52:59.350Z,25.33
2022-08-08T09:56:04.492Z,25.25
2022-08-08T09:58:40.687Z,24.95
2022-08-08T10:01:15.497Z,24.45
2022-08-08T10:04:02.290Z,23.95
2022-08-08T10:06:32.339Z,23.70
2022-08-08T10:08:59.970Z,23.85
2022-08-08T10:12:25.774Z,24.36
2022-08-08T10:14:28.415Z,24.19
2022-08-08T10:17:56.203Z,23.94
2022-08-08T10:19:58.103Z,23.72
2022-08-08T10:22:27.319Z,23.79
2022-08-08T10:25:05.195Z,23.98
2022-08-08T10:27:40.983Z,24.39
2022-08-08T10:30:08.384Z,24.16
2022-08-08T10:32:51.165Z,23.87
2022-08-08T10:36:20.498Z,23.69
2022-08-08T10:38:15.028Z,24.32
2022-08-08T10:40:45.688Z,24.90
2022-08-08T10:43:12.854Z,25.09
2022-08-08T10:45:55.581Z,24.70
2022-08-08T10:48:58.325Z,24.40
2022-08-08T10:51:31.144Z,24.25
2022-08-08T10:54:07.439Z,24.27
2022-08-08T10:56:35.577Z,24.40
2022-08-08T10:59:10.278Z,24.35
2022-08-08T11:01:54.712Z,25.07
2022-08-08T11:04:38.682Z,25.46
2022-08-08T11:07:07.079Z,25.21
2022-08-08T11:09:34.783Z,25.18
2022-08-08T11:12:13.560Z,25.18
2022-08-08T11:14:50.230Z,25.88
2022-08-08T11:17:58.742Z,25.94
2022-08-08T11:20:12.725Z,26.27
2022-08-08T11:22:40.925Z,26.23
2022-08-08T11:25:14.129Z,26.40
2022-08-08T11:27:44.533Z,26.28
2022-08-08T11:30:20.659Z,26.51
2022-08-08T11:32:57.179Z,26.68
2022-08-08T11:35:38.436Z,26.72
2022-08-08T11:38:38.856Z,26.47
2022-08-08T11:40:57.047Z,26.91
2022-08-08T11:43:39.041Z,27.94
2022-08-08T11:46:17.472Z,29.05
2022-08-08T11:48:47.039Z,28.29
2022-08-08T11:51:37.863Z,26.87
2022-08-08T11:54:09.756Z,27.76
2022-08-08T11:56:58.229Z,28.53
2022-08-08T11:59:58.763Z,29.40
2022-08-08T12:02:32.210Z,29.79
2022-08-08T12:05:13.090Z,30.23
2022-08-08T12:07:56.751Z,29.10
2022-08-08T12:10:25.836Z,29.75
2022-08-08T12:13:07.192Z,29.97
2022-08-08T12:15:42.114Z,30.33
2022-08-08T12:18:21.504Z,30.71
2022-08-08T12:20:53.264Z,30.91
2022-08-08T12:23:43.566Z,31.42
2022-08-08T12:26:27.405Z,32.44
2022-08-08T12:29:17.955Z,32.48
2022-08-08T12:31:53.196Z,32.14
2022-08-08T12:34:36.585Z,32.24
2022-08-08T12:37:08.893Z,32.32
2022-08-08T12:40:01.513Z,32.34
2022-08-08T12:42:27.351Z,32.34
2022-08-08T12:45:20.052Z,31.86
2022-08-08T12:48:09.650Z,32.56
2022-08-08T12:50:48.206Z,33.31
2022-08-08T12:53:30.075Z,33.56
2022-08-08T12:56:19.719Z,33.72
2022-08-08T12:58:54.433Z,32.93
2022-08-08T13:01:36.499Z,33.74
2022-08-08T13:04:24.454Z,33.10
2022-08-08T13:06:56.951Z,33.55
2022-08-08T13:10:04.924Z,33.42
2022-08-08T13:12:47.133Z,33.77
2022-08-08T13:15:17.426Z,33.19
2022-08-08T13:18:09.012Z,33.82
2022-08-08T13:20:33.934Z,33.45
2022-08-08T13:23:30.947Z,34.22
2022-08-08T13:25:50.248Z,34.35
2022-08-08T13:28:31.933Z,34.77
2022-08-08T13:31:00.227Z,35.24
2022-08-08T13:33:28.903Z,35.31
2022-08-08T13:36:10.672Z,35.29
2022-08-08T13:38:38.553Z,35.53
2022-08-08T13:41:07.264Z,35.28
2022-08-08T13:43:47.571Z,34.66
2022-08-08T13:46:26.577Z,34.49
2022-08-08T13:50:33.508Z,33.94
2022-08-08T13:51:55.157Z,32.88
2022-08-08T13:54:31.251Z,32.40
2022-08-08T13:57:01.303Z,32.51
2022-08-08T13:59:39.710Z,33.84
2022-08-08T14:02:33.045Z,34.39
2022-08-08T14:05:00.334Z,33.74
2022-08-08T14:07:49.833Z,34.49
2022-08-08T14:10:32.919Z,34.97
2022-08-08T14:13:10.131Z,34.75
2022-08-08T14:16:04.092Z,33.95
2022-08-08T14:18:36.660Z,35.08
2022-08-08T14:21:20.894Z,35.10
2022-08-08T14:24:07.386Z,34.86
2022-08-08T14:26:43.233Z,35.18
2022-08-08T14:29:28.103Z,34.41
2022-08-08T14:32:11.007Z,33.11
2022-08-08T14:34:42.213Z,34.32
2022-08-08T14:37:13.095Z,34.57
2022-08-08T14:39:51.088Z,34.49
2022-08-08T14:42:29.592Z,34.41
2022-08-08T14:45:00.270Z,32.61
2022-08-08T14:47:27.684Z,33.72
2022-08-08T14:50:09.818Z,34.36
2022-08-08T14:52:53.100Z,34.05
2022-08-08T14:55:22.233Z,33.75
2022-08-08T14:58:06.541Z,33.98
2022-08-08T15:00:38.220Z,33.53
2022-08-08T15:03:16.254Z,33.88
2022-08-08T15:05:54.620Z,35.54
2022-08-08T15:08:35.280Z,36.43
2022-08-08T15:11:09.401Z,34.92
2022-08-08T15:14:00.381Z,34.45
2022-08-08T15:16:27.936Z,35.12
2022-08-08T15:18:55.318Z,35.17
2022-08-08T15:21:22.134Z,34.68
2022-08-08T15:23:51.313Z,35.19
2022-08-08T15:26:20.099Z,34.84
2022-08-08T15:28:53.372Z,34.02
2022-08-08T15:31:25.578Z,33.49
2022-08-08T15:34:08.427Z,34.88
2022-08-08T15:36:35.431Z,34.58
2022-08-08T15:39:03.934Z,33.35
2022-08-08T15:41:43.827Z,33.87
2022-08-08T15:44:13.654Z,33.07
2022-08-08T15:46:45.499Z,34.53
2022-08-08T15:49:17.695Z,33.47
2022-08-08T15:51:50.150Z,33.73
2022-08-08T15:54:18.812Z,33.32
2022-08-08T15:57:04.679Z,33.13
2022-08-08T16:00:06.656Z,31.61
2022-08-08T16:02:21.814Z,31.53
2022-08-08T16:04:58.685Z,32.81
2022-08-08T16:07:52.078Z,32.62
2022-08-08T16:13:04.571Z,33.09
2022-08-08T16:13:29.206Z,32.85
2022-08-08T16:15:57.432Z,33.42
2022-08-08T16:18:35.847Z,32.48
2022-08-08T16:21:02.913Z,32.72
2022-08-08T16:23:32.561Z,32.09
2022-08-08T16:26:04.231Z,32.40
2022-08-08T16:28:34.747Z,32.97
2022-08-08T16:31:07.885Z,33.20
2022-08-08T16:33:38.905Z,32.70
2022-08-08T16:36:13.150Z,32.27
2022-08-08T16:38:47.535Z,32.43
2022-08-08T16:41:22.578Z,31.83
2022-08-08T16:43:52.147Z,32.09
2022-08-08T16:46:43.939Z,31.54
2022-08-08T16:49:09.070Z,31.43
2022-08-08T16:55:01.629Z,30.48
2022-08-08T16:55:07.217Z,28.90
2022-08-08T16:58:12.185Z,27.80
2022-08-08T17:00:08.778Z,27.11
2022-08-08T17:02:44.237Z,26.03
2022-08-08T17:05:13.747Z,25.63
2022-08-08T17:07:41.736Z,25.37
2022-08-08T17:10:16.926Z,25.15
2022-08-08T17:12:53.156Z,25.20
2022-08-08T17:15:21.285Z,24.82
2022-08-08T17:18:02.225Z,24.52
2022-08-08T17:20:31.635Z,24.38
2022-08-08T17:23:18.431Z,24.27
2022-08-08T17:25:52.123Z,24.01
2022-08-08T17:28:34.942Z,23.88
2022-08-08T17:31:39.507Z,23.78
2022-08-08T17:37:00.967Z,23.39
2022-08-08T17:40:04.451Z,23.15
2022-08-08T17:42:15.538Z,23.18
2022-08-08T17:44:44.291Z,23.15
2022-08-08T17:47:16.316Z,23.06
2022-08-08T17:49:51.880Z,22.94
2022-08-08T17:52:20.144Z,22.72
2022-08-08T17:54:51.827Z,22.57
2022-08-08T17:57:22.565Z,22.42
2022-08-08T17:59:49.159Z,22.37
2022-08-08T18:02:28.496Z,22.29
2022-08-08T18:04:58.232Z,22.22
2022-08-08T18:08:01.964Z,22.10
2022-08-08T18:10:15.725Z,21.91
2022-08-08T18:12:46.240Z,21.80
2022-08-08T18:18:09.094Z,21.65
2022-08-08T18:20:54.258Z,21.51
2022-08-08T18:23:21.974Z,21.36
2022-08-08T18:25:49.981Z,21.31
2022-08-08T18:28:25.447Z,21.23
2022-08-08T18:30:52.745Z,21.10
2022-08-08T18:34:10.314Z,20.99
2022-08-08T18:36:22.974Z,20.70
2022-08-08T18:38:55.499Z,20.37
2022-08-08T18:41:51.505Z,20.10
2022-08-08T18:44:12.800Z,19.83
2022-08-08T18:46:55.277Z,19.67
2022-08-08T18:49:40.886Z,19.64
2022-08-08T18:52:23.329Z,19.58
2022-08-08T18:55:00.627Z,19.49
2022-08-08T18:57:42.000Z,19.35
2022-08-08T19:00:21.261Z,19.19
2022-08-08T19:02:55.378Z,19.08
2022-08-08T19:05:32.376Z,18.99
2022-08-08T19:08:10.091Z,18.87
2022-08-08T19:10:37.506Z,18.71
2022-08-08T19:13:10.906Z,18.62
2022-08-08T19:15:48.071Z,18.60
2022-08-08T19:18:32.132Z,18.61
2022-08-08T19:21:06.075Z,18.58
2022-08-08T19:23:52.975Z,18.47
2022-08-08T19:26:30.265Z,18.42
2022-08-08T19:29:00.552Z,18.28
2022-08-08T19:31:31.317Z,18.09
2022-08-08T19:34:04.999Z,17.90
2022-08-08T19:36:51.965Z,17.96
2022-08-08T19:39:19.619Z,17.84
2022-08-08T19:41:49.897Z,17.81
2022-08-08T19:44:43.041Z,17.65
2022-08-08T19:47:04.428Z,17.63
2022-08-08T19:49:37.685Z,17.59
2022-08-08T19:52:06.599Z,17.58
2022-08-08T19:54:33.766Z,17.52
2022-08-08T19:57:04.189Z,17.54
2022-08-08T19:59:34.796Z,17.48
2022-08-08T20:02:04.437Z,17.36
2022-08-08T20:04:35.213Z,17.28
2022-08-08T20:08:27.201Z,17.29
2022-08-08T20:09:56.326Z,17.29
2022-08-08T20:12:32.599Z,17.24
2022-08-08T20:15:14.612Z,17.18
2022-08-08T20:17:46.212Z,17.17
2022-08-08T20:20:16.048Z,17.09
2022-08-08T20:22:52.610Z,16.93
2022-08-08T20:25:21.332Z,16.73
2022-08-08T20:27:50.158Z,16.67
2022-08-08T20:30:53.145Z,16.63
2022-08-08T20:33:20.193Z,16.55
2022-08-08T20:35:56.821Z,16.46
2022-08-08T20:38:31.923Z,16.36
2022-08-08T20:41:00.852Z,16.27
2022-08-08T20:43:43.616Z,16.29
2022-08-08T20:46:14.824Z,16.23
2022-08-08T20:48:41.513Z,16.25
2022-08-08T20:51:08.218Z,16.09
2022-08-08T20:53:59.113Z,16.08
2022-08-08T20:56:35.823Z,16.07
2022-08-08T20:59:10.160Z,15.96
2022-08-08T21:02:06.526Z,15.85
2022-08-08T21:04:27.357Z,15.73
2022-08-08T21:06:55.047Z,15.65
2022-08-08T21:09:21.965Z,15.62
2022-08-08T21:11:51.762Z,15.56
2022-08-08T21:14:33.568Z,15.63
2022-08-08T21:17:05.990Z,15.64
2022-08-08T21:19:45.419Z,15.69
2022-08-08T21:22:13.672Z,15.61
2022-08-08T21:24:41.801Z,15.59
2022-08-08T21:28:06.723Z,15.56
2022-08-08T21:30:10.831Z,15.48
2022-08-08T21:32:45.815Z,15.45
2022-08-08T21:36:14.646Z,15.45
2022-08-08T21:38:08.398Z,15.35
2022-08-08T21:40:38.715Z,15.33
2022-08-08T21:43:21.993Z,15.41
2022-08-08T21:48:04.260Z,15.45
2022-08-08T21:48:44.445Z,15.44
2022-08-08T21:51:11.868Z,15.54
2022-08-08T21:54:31.836Z,15.58
2022-08-08T21:56:32.280Z,15.61
2022-08-08T21:59:05.737Z,15.61
2022-08-08T22:01:40.839Z,15.61
2022-08-08T22:04:10.521Z,15.60
2022-08-08T22:06:40.279Z,15.53
2022-08-08T22:09:09.782Z,15.53
2022-08-08T22:11:59.291Z,15.48
2022-08-08T22:14:26.979Z,15.28
2022-08-08T22:16:56.192Z,15.08
2022-08-08T22:19:24.145Z,15.04
2022-08-08T22:21:52.932Z,15.09
2022-08-08T22:24:28.393Z,15.02
2022-08-08T22:27:01.193Z,14.97
2022-08-08T22:29:57.866Z,14.79
2022-08-08T22:32:18.076Z,14.79
2022-08-08T22:34:50.577Z,14.80
2022-08-08T22:37:48.715Z,14.77
2022-08-08T22:40:07.496Z,14.71
2022-08-08T22:42:38.973Z,14.64
2022-08-08T22:45:12.433Z,14.62
2022-08-08T22:47:41.357Z,14.57
2022-08-08T22:50:26.151Z,14.62
2022-08-08T22:54:31.666Z,14.61
2022-08-08T22:55:57.640Z,14.42
2022-08-08T22:58:27.101Z,14.29
2022-08-08T23:00:55.343Z,14.16
2022-08-08T23:03:22.049Z,14.07
2022-08-08T23:05:49.796Z,14.12
2022-08-08T23:08:18.067Z,14.06
2022-08-08T23:10:52.991Z,14.09
2022-08-08T23:13:22.475Z,14.06
2022-08-08T23:16:41.906Z,14.07
2022-08-08T23:18:40.346Z,13.99
2022-08-08T23:21:07.785Z,14.03
2022-08-08T23:23:48.845Z,14.03
2022-08-08T23:26:21.822Z,13.88
2022-08-08T23:28:48.525Z,13.86
2022-08-08T23:31:15.173Z,13.76
2022-08-08T23:34:18.502Z,13.73
2022-08-08T23:36:29.269Z,13.60
2022-08-08T23:38:55.893Z,13.59
2022-08-08T23:41:25.045Z,13.60
2022-08-08T23:43:54.091Z,13.36
2022-08-08T23:49:06.770Z,13.24
2022-08-08T23:49:15.657Z,13.24
2022-08-08T23:52:04.446Z,13.24
2022-08-08T23:54:41.306Z,13.20
2022-08-08T23:57:25.595Z,13.28
